createdAt,value
2024-03-02T00:00:32.829Z,5
2024-03-02T00:01:32.687Z,5
2024-03-02T00:02:32.643Z,4.8
2024-03-02T00:03:32.719Z,5.1
2024-03-02T00:04:32.618Z,4.8
2024-03-02T00:05:32.668Z,4.4
2024-03-02T00:06:32.671Z,5.5
2024-03-02T00:07:32.647Z,4.7
2024-03-02T00:08:32.693Z,3.7
2024-03-02T00:09:32.683Z,5.2
2024-03-02T00:10:32.794Z,4.9
2024-03-02T00:11:32.712Z,4.4
2024-03-02T00:12:32.661Z,4.9
2024-03-02T00:13:32.657Z,4.7
2024-03-02T00:14:32.673Z,4.2
2024-03-02T00:15:32.691Z,5.2
2024-03-02T00:16:32.710Z,5.7
2024-03-02T00:17:32.666Z,5.1
2024-03-02T00:18:32.889Z,4.1
2024-03-02T00:19:32.644Z,4.6
2024-03-02T00:20:32.659Z,4.5
2024-03-02T00:21:32.672Z,4.7
2024-03-02T00:22:32.659Z,4.8
2024-03-02T00:23:32.810Z,4.6
2024-03-02T00:24:32.675Z,4.6
2024-03-02T00:25:32.655Z,3.6
2024-03-02T00:26:32.642Z,4.8
2024-03-02T00:27:32.652Z,4.5
2024-03-02T00:28:32.660Z,4.5
2024-03-02T00:29:32.649Z,5.1
2024-03-02T00:30:32.682Z,4.2
2024-03-02T00:31:32.625Z,4.9
2024-03-02T00:32:32.660Z,5
2024-03-02T00:33:32.692Z,3.8
2024-03-02T00:34:32.669Z,5.3
2024-03-02T00:35:32.650Z,4.6
2024-03-02T00:36:32.702Z,4.3
2024-03-02T00:37:32.671Z,3.6
2024-03-02T00:38:32.666Z,5.5
2024-03-02T00:39:32.667Z,4.7
2024-03-02T00:40:32.649Z,4.2
2024-03-02T00:41:32.639Z,4.7
2024-03-02T00:42:32.664Z,4.3
2024-03-02T00:43:32.646Z,4.2
2024-03-02T00:44:32.656Z,4.6
2024-03-02T00:45:32.681Z,4.1
2024-03-02T00:46:32.615Z,5.2
2024-03-02T00:47:32.685Z,5.2
2024-03-02T00:48:32.740Z,4.4
2024-03-02T00:49:32.633Z,5.2
2024-03-02T00:50:32.661Z,5.2
2024-03-02T00:51:32.675Z,5.3
2024-03-02T00:52:32.645Z,4.5
2024-03-02T00:53:32.628Z,4.8
2024-03-02T00:54:32.676Z,4.6
2024-03-02T00:55:32.656Z,5
2024-03-02T00:56:32.653Z,4.4
2024-03-02T00:57:32.674Z,4.6
2024-03-02T00:58:32.659Z,5.3
2024-03-02T00:59:32.653Z,4.9
2024-03-02T01:00:32.689Z,4.5
2024-03-02T01:01:32.700Z,4.6
2024-03-02T01:02:32.641Z,4.5
2024-03-02T01:03:32.693Z,4.8
2024-03-02T01:04:32.650Z,4.3
2024-03-02T01:05:32.619Z,5.5
2024-03-02T01:06:32.657Z,5.3
2024-03-02T01:07:32.644Z,5.7
2024-03-02T01:08:32.657Z,5.4
2024-03-02T01:09:32.692Z,4.9
2024-03-02T01:10:32.652Z,4.9
2024-03-02T01:11:32.735Z,4.9
2024-03-02T01:12:32.692Z,5.5
2024-03-02T01:13:32.652Z,5.2
2024-03-02T01:14:32.661Z,4.8
2024-03-02T01:15:32.718Z,4.6
2024-03-02T01:16:32.662Z,4.9
2024-03-02T01:17:32.652Z,5.7
2024-03-02T01:18:32.704Z,5.1
2024-03-02T01:19:32.683Z,5
2024-03-02T01:20:32.656Z,4.7
2024-03-02T01:21:32.657Z,4.7
2024-03-02T01:22:32.679Z,4.7
2024-03-02T01:23:32.654Z,5
2024-03-02T01:24:32.640Z,4.9
2024-03-02T01:25:32.657Z,5.6
2024-03-02T01:26:32.655Z,5.2
2024-03-02T01:27:32.665Z,5.8
2024-03-02T01:28:32.660Z,5
2024-03-02T01:29:32.648Z,5.3
2024-03-02T01:30:32.684Z,5.2
2024-03-02T01:31:32.654Z,5.5
2024-03-02T01:32:32.659Z,5.1
2024-03-02T01:33:32.629Z,4.8
2024-03-02T01:34:32.636Z,5.5
2024-03-02T01:35:32.653Z,5
2024-03-02T01:36:32.632Z,5.5
2024-03-02T01:37:32.637Z,5
2024-03-02T01:38:32.707Z,5.2
2024-03-02T01:39:32.663Z,5.3
2024-03-02T01:40:32.629Z,4.9
2024-03-02T01:41:32.653Z,4.5
2024-03-02T01:42:32.669Z,5.1
2024-03-02T01:43:32.649Z,4.5
2024-03-02T01:44:32.673Z,4.2
2024-03-02T01:45:32.656Z,4.4
2024-03-02T01:46:32.630Z,5.4
2024-03-02T01:47:32.649Z,4.6
2024-03-02T01:48:32.665Z,4.9
2024-03-02T01:49:32.655Z,4.9
2024-03-02T01:50:32.660Z,4.9
2024-03-02T01:51:32.680Z,4.6
2024-03-02T01:52:32.659Z,5.4
2024-03-02T01:53:32.661Z,4.5
2024-03-02T01:54:32.731Z,4.5
2024-03-02T01:55:32.630Z,5.2
2024-03-02T01:56:32.684Z,5.8
2024-03-02T01:57:32.708Z,5.2
2024-03-02T01:58:32.631Z,5.2
2024-03-02T01:59:32.596Z,5.1
2024-03-02T02:00:32.668Z,5.3
2024-03-02T02:01:32.673Z,5.4
2024-03-02T02:02:32.643Z,5.7
2024-03-02T02:03:32.683Z,5.4
2024-03-02T02:04:32.671Z,5.2
2024-03-02T02:05:32.668Z,5.6
2024-03-02T02:06:32.701Z,5.1
2024-03-02T02:07:32.648Z,5.4
2024-03-02T02:08:32.658Z,5.6
2024-03-02T02:09:32.686Z,5.4
2024-03-02T02:10:32.662Z,4.9
2024-03-02T02:11:32.681Z,5.1
2024-03-02T02:12:32.632Z,6.4
2024-03-02T02:13:32.673Z,6.4
2024-03-02T02:14:32.595Z,6.8
2024-03-02T02:15:32.691Z,6
2024-03-02T02:16:32.662Z,6.4
2024-03-02T02:17:32.662Z,6.2
2024-03-02T02:18:32.680Z,6.6
2024-03-02T02:19:32.659Z,7.1
2024-03-02T02:20:32.658Z,7.4
2024-03-02T02:21:32.659Z,6.8
2024-03-02T02:22:32.661Z,7
2024-03-02T02:23:32.646Z,8.4
2024-03-02T02:24:32.674Z,7.4
2024-03-02T02:25:32.654Z,7.5
2024-03-02T02:26:32.650Z,6.3
2024-03-02T02:27:32.713Z,6.6
2024-03-02T02:28:32.644Z,6.1
2024-03-02T02:29:32.657Z,6.4
2024-03-02T02:30:32.725Z,6.4
2024-03-02T02:31:32.659Z,5.9
2024-03-02T02:32:32.683Z,5.4
2024-03-02T02:33:32.740Z,5
2024-03-02T02:34:32.621Z,5.1
2024-03-02T02:35:32.647Z,4.4
2024-03-02T02:36:32.674Z,4.3
2024-03-02T02:37:32.665Z,4.3
2024-03-02T02:38:32.642Z,4.2
2024-03-02T02:39:32.711Z,4.2
2024-03-02T02:40:32.634Z,4.6
2024-03-02T02:41:32.657Z,4.3
2024-03-02T02:42:32.659Z,4.6
2024-03-02T02:43:32.664Z,4.4
2024-03-02T02:44:32.655Z,4.1
2024-03-02T02:45:32.666Z,4.6
2024-03-02T02:46:32.655Z,4.1
2024-03-02T02:47:32.696Z,4.5
2024-03-02T02:48:32.672Z,4.1
2024-03-02T02:49:32.654Z,4.4
2024-03-02T02:50:32.667Z,4.3
2024-03-02T02:51:32.582Z,4.3
2024-03-02T02:52:32.601Z,4.5
2024-03-02T02:53:32.642Z,3.9
2024-03-02T02:54:32.638Z,4.2
2024-03-02T02:55:32.665Z,4
2024-03-02T02:56:32.659Z,3.9
2024-03-02T02:57:32.688Z,4
2024-03-02T02:58:32.627Z,3.6
2024-03-02T02:59:32.660Z,4.4
2024-03-02T03:00:32.725Z,3.5
2024-03-02T03:01:32.720Z,4.1
2024-03-02T03:02:32.656Z,3.8
2024-03-02T03:03:32.669Z,4.3
2024-03-02T03:04:32.626Z,3.9
2024-03-02T03:05:32.668Z,3.9
2024-03-02T03:06:32.682Z,4.1
2024-03-02T03:07:32.656Z,3.8
2024-03-02T03:08:32.672Z,4.3
2024-03-02T03:09:32.717Z,4.4
2024-03-02T03:10:32.655Z,4
2024-03-02T03:11:32.697Z,3.9
2024-03-02T03:12:32.679Z,4.3
2024-03-02T03:13:32.667Z,3.9
2024-03-02T03:14:32.634Z,4.4
2024-03-02T03:15:32.649Z,4
2024-03-02T03:16:32.654Z,5.1
2024-03-02T03:17:32.817Z,4.1
2024-03-02T03:18:32.693Z,4.9
2024-03-02T03:19:32.636Z,4.2
2024-03-02T03:20:32.654Z,4
2024-03-02T03:21:32.728Z,5.2
2024-03-02T03:22:32.653Z,3.7
2024-03-02T03:23:32.635Z,4.7
2024-03-02T03:24:32.658Z,5.1
2024-03-02T03:25:32.656Z,4.3
2024-03-02T03:26:32.653Z,3.9
2024-03-02T03:27:32.643Z,4.1
2024-03-02T03:28:32.640Z,3.6
2024-03-02T03:29:32.660Z,4.2
2024-03-02T03:30:32.709Z,3.9
2024-03-02T03:31:32.664Z,4.1
2024-03-02T03:32:32.640Z,4
2024-03-02T03:33:32.678Z,4.8
2024-03-02T03:34:32.674Z,4.3
2024-03-02T03:35:32.641Z,4.1
2024-03-02T03:36:32.665Z,4.2
2024-03-02T03:37:32.658Z,4.9
2024-03-02T03:38:32.643Z,3.9
2024-03-02T03:39:32.667Z,4.4
2024-03-02T03:40:32.611Z,5.3
2024-03-02T03:41:32.658Z,4.8
2024-03-02T03:42:32.729Z,4.5
2024-03-02T03:43:32.648Z,4.2
2024-03-02T03:44:32.620Z,3.7
2024-03-02T03:45:32.769Z,4.2
2024-03-02T03:46:32.659Z,4.7
2024-03-02T03:47:32.633Z,5
2024-03-02T03:48:32.697Z,4.9
2024-03-02T03:49:32.638Z,5
2024-03-02T03:50:32.638Z,5
2024-03-02T03:51:32.659Z,4.8
2024-03-02T03:52:32.616Z,4.1
2024-03-02T03:53:32.666Z,5.1
2024-03-02T03:54:32.702Z,4.6
2024-03-02T03:55:32.636Z,5.9
2024-03-02T03:56:32.632Z,5.1
2024-03-02T03:57:32.657Z,5.5
2024-03-02T03:58:32.652Z,5.8
2024-03-02T03:59:32.672Z,6.2
2024-03-02T04:00:32.674Z,6.6
2024-03-02T04:01:32.690Z,6.1
2024-03-02T04:02:32.662Z,5.7
2024-03-02T04:03:32.708Z,6
2024-03-02T04:04:32.729Z,5.8
2024-03-02T04:05:32.664Z,6.2
2024-03-02T04:06:32.701Z,6.2
2024-03-02T04:07:32.657Z,6.3
2024-03-02T04:08:32.658Z,6.1
2024-03-02T04:09:32.707Z,6.7
2024-03-02T04:10:32.659Z,6.7
2024-03-02T04:11:32.667Z,6.2
2024-03-02T04:12:32.714Z,7.7
2024-03-02T04:13:32.640Z,7.8
2024-03-02T04:14:32.647Z,6.7
2024-03-02T04:15:32.655Z,7.9
2024-03-02T04:16:32.624Z,7.7
2024-03-02T04:17:32.660Z,7.7
2024-03-02T04:18:32.704Z,7.2
2024-03-02T04:19:32.673Z,8
2024-03-02T04:20:32.656Z,10.1
2024-03-02T04:21:32.698Z,6.3
2024-03-02T04:22:32.679Z,8.2
2024-03-02T04:23:32.624Z,8
2024-03-02T04:24:32.686Z,7.3
2024-03-02T04:25:32.661Z,7.1
2024-03-02T04:26:32.620Z,7
2024-03-02T04:27:32.664Z,6.6
2024-03-02T04:28:32.664Z,6
2024-03-02T04:29:32.659Z,6.5
2024-03-02T04:30:32.653Z,6.8
2024-03-02T04:31:32.697Z,6.3
2024-03-02T04:32:32.742Z,5.8
2024-03-02T04:33:32.703Z,6.2
2024-03-02T04:34:32.632Z,6.2
2024-03-02T04:35:32.655Z,6.3
2024-03-02T04:36:32.773Z,6.8
2024-03-02T04:37:32.674Z,6.9
2024-03-02T04:38:32.638Z,7.3
2024-03-02T04:39:32.656Z,7.3
2024-03-02T04:40:32.638Z,7
2024-03-02T04:41:32.654Z,6.9
2024-03-02T04:42:32.708Z,7.2
2024-03-02T04:43:32.668Z,6.2
2024-03-02T04:44:32.633Z,6.5
2024-03-02T04:45:32.726Z,6.6
2024-03-02T04:46:32.666Z,6
2024-03-02T04:47:32.646Z,6.2
2024-03-02T04:48:32.682Z,5.8
2024-03-02T04:49:32.773Z,5.9
2024-03-02T04:50:32.652Z,6
2024-03-02T04:51:32.716Z,5.6
2024-03-02T04:52:32.671Z,5.2
2024-03-02T04:53:32.647Z,5.7
2024-03-02T04:54:32.697Z,5.2
2024-03-02T04:55:32.602Z,5.6
2024-03-02T04:56:32.644Z,6.6
2024-03-02T04:57:32.676Z,6.3
2024-03-02T04:58:32.663Z,6.3
2024-03-02T04:59:32.642Z,5.9
2024-03-02T05:00:32.672Z,6.7
2024-03-02T05:01:32.630Z,6.7
2024-03-02T05:02:32.635Z,6.5
2024-03-02T05:03:32.686Z,5.8
2024-03-02T05:04:32.665Z,6.2
2024-03-02T05:05:32.678Z,5.5
2024-03-02T05:06:32.652Z,7
2024-03-02T05:07:32.625Z,6.2
2024-03-02T05:08:32.638Z,6.7
2024-03-02T05:09:32.641Z,6.7
2024-03-02T05:10:32.647Z,7.1
2024-03-02T05:11:32.682Z,6.7
2024-03-02T05:12:32.676Z,6.5
2024-03-02T05:13:32.653Z,6.4
2024-03-02T05:14:32.631Z,6.5
2024-03-02T05:15:32.624Z,7.1
2024-03-02T05:16:32.602Z,8.9
2024-03-02T05:17:32.709Z,7.8
2024-03-02T05:18:32.658Z,8.5
2024-03-02T05:19:32.629Z,7.4
2024-03-02T05:20:32.633Z,7
2024-03-02T05:21:32.690Z,7.5
2024-03-02T05:22:32.653Z,6.9
2024-03-02T05:23:32.646Z,6.2
2024-03-02T05:24:32.641Z,7.2
2024-03-02T05:25:32.646Z,7.8
2024-03-02T05:26:32.633Z,7.1
2024-03-02T05:27:32.678Z,8.3
2024-03-02T05:28:32.665Z,7.1
2024-03-02T05:29:32.632Z,6.7
2024-03-02T05:30:32.664Z,6.6
2024-03-02T05:31:32.634Z,5.9
2024-03-02T05:32:32.626Z,5.9
2024-03-02T05:33:32.735Z,6.5
2024-03-02T05:34:32.622Z,6.2
2024-03-02T05:35:32.631Z,6
2024-03-02T05:36:32.646Z,5.9
2024-03-02T05:37:32.640Z,5.9
2024-03-02T05:38:32.657Z,5.9
2024-03-02T05:39:32.720Z,6.1
2024-03-02T05:40:32.657Z,6
2024-03-02T05:41:32.653Z,7.9
2024-03-02T05:42:32.667Z,6.5
2024-03-02T05:43:32.676Z,6.3
2024-03-02T05:44:32.642Z,6.3
2024-03-02T05:45:32.675Z,6.1
2024-03-02T05:46:32.656Z,6
2024-03-02T05:47:32.677Z,6
2024-03-02T05:48:32.679Z,6.3
2024-03-02T05:49:32.663Z,6.9
2024-03-02T05:50:32.652Z,8.2
2024-03-02T05:51:32.656Z,8.1
2024-03-02T05:52:32.616Z,6.9
2024-03-02T05:53:32.665Z,6.6
2024-03-02T05:54:32.623Z,5.4
2024-03-02T05:55:32.651Z,5.1
2024-03-02T05:56:32.654Z,6
2024-03-02T05:57:32.699Z,5
2024-03-02T05:58:32.670Z,5.6
2024-03-02T05:59:32.666Z,4.6
2024-03-02T06:00:32.777Z,4.3
2024-03-02T06:01:32.709Z,5.5
2024-03-02T06:02:32.663Z,6
2024-03-02T06:03:32.716Z,5
2024-03-02T06:04:32.656Z,5.8
2024-03-02T06:05:32.624Z,6.1
2024-03-02T06:06:32.701Z,4.7
2024-03-02T06:07:32.659Z,5.1
2024-03-02T06:08:32.657Z,6.1
2024-03-02T06:09:32.665Z,7.2
2024-03-02T06:10:32.654Z,7.2
2024-03-02T06:11:32.688Z,5.6
2024-03-02T06:12:32.696Z,4.8
2024-03-02T06:13:32.665Z,5.3
2024-03-02T06:14:32.623Z,5.2
2024-03-02T06:15:32.652Z,4.8
2024-03-02T06:16:32.642Z,4.3
2024-03-02T06:17:32.703Z,4.9
2024-03-02T06:18:32.686Z,3.6
2024-03-02T06:19:32.578Z,3.6
2024-03-02T06:20:36.461Z,3.5
2024-03-02T06:21:32.677Z,4.9
2024-03-02T06:22:32.660Z,5.1
2024-03-02T06:23:32.616Z,4.4
2024-03-02T06:24:32.718Z,5.8
2024-03-02T06:25:32.668Z,6.1
2024-03-02T06:26:32.639Z,4.4
2024-03-02T06:27:32.642Z,4.6
2024-03-02T06:28:32.657Z,5.6
2024-03-02T06:29:32.671Z,7.1
2024-03-02T06:30:32.681Z,5.6
2024-03-02T06:31:32.648Z,5.3
2024-03-02T06:32:32.622Z,6.2
2024-03-02T06:33:32.668Z,7.1
2024-03-02T06:34:32.626Z,5.6
2024-03-02T06:35:32.650Z,5.6
2024-03-02T06:36:32.670Z,6.3
2024-03-02T06:37:32.663Z,5.7
2024-03-02T06:38:32.618Z,5
2024-03-02T06:39:32.675Z,5.1
2024-03-02T06:40:32.672Z,4.4
2024-03-02T06:41:32.653Z,4.8
2024-03-02T06:42:32.683Z,5.3
2024-03-02T06:43:32.653Z,5.5
2024-03-02T06:44:32.643Z,5.3
2024-03-02T06:45:32.636Z,6.7
2024-03-02T06:46:32.624Z,5.5
2024-03-02T06:48:32.748Z,4.8
2024-03-02T06:49:32.641Z,5.2
2024-03-02T06:50:32.641Z,4.6
2024-03-02T06:51:32.673Z,4.8
2024-03-02T06:52:32.661Z,5.6
2024-03-02T06:53:32.687Z,4.7
2024-03-02T06:54:32.617Z,5.6
2024-03-02T06:55:32.661Z,5.1
2024-03-02T06:56:32.663Z,5.2
2024-03-02T06:57:32.710Z,3.8
2024-03-02T06:58:32.637Z,5.1
2024-03-02T06:59:32.660Z,6.1
2024-03-02T07:00:32.674Z,5
2024-03-02T07:01:32.681Z,4.5
2024-03-02T07:02:32.642Z,5.2
2024-03-02T07:03:32.723Z,4.3
2024-03-02T07:04:32.659Z,5.4
2024-03-02T07:05:32.658Z,5.3
2024-03-02T07:06:32.650Z,5.4
2024-03-02T07:07:32.659Z,6.2
2024-03-02T07:08:32.646Z,7.1
2024-03-02T07:09:32.685Z,7
2024-03-02T07:10:32.640Z,4.6
2024-03-02T07:11:32.636Z,5.9
2024-03-02T07:12:32.664Z,6.2
2024-03-02T07:13:32.688Z,5.6
2024-03-02T07:14:32.634Z,5.1
2024-03-02T07:15:32.672Z,4.9
2024-03-02T07:16:32.638Z,5.6
2024-03-02T07:17:32.678Z,7.1
2024-03-02T07:18:32.805Z,5.8
2024-03-02T07:19:32.686Z,5.2
2024-03-02T07:20:32.666Z,5
2024-03-02T07:21:32.695Z,5.4
2024-03-02T07:22:32.666Z,5.1
2024-03-02T07:23:32.654Z,5
2024-03-02T07:24:32.656Z,4.9
2024-03-02T07:27:32.659Z,6.3
2024-03-02T07:28:32.614Z,5.8
2024-03-02T07:29:32.662Z,6.5
2024-03-02T07:30:34.241Z,8.7
2024-03-02T07:31:32.657Z,7.8
2024-03-02T07:32:32.688Z,7.9
2024-03-02T07:33:32.715Z,7.3
2024-03-02T07:34:32.683Z,7.7
2024-03-02T07:35:32.663Z,8.3
2024-03-02T07:36:32.626Z,8.2
2024-03-02T07:37:32.628Z,8.9
2024-03-02T07:38:32.658Z,10.6
2024-03-02T07:39:32.699Z,7.5
2024-03-02T07:40:32.661Z,7.8
2024-03-02T07:41:32.643Z,7
2024-03-02T07:42:32.684Z,7.2
2024-03-02T07:43:32.678Z,8.4
2024-03-02T07:44:32.656Z,9.4
2024-03-02T07:45:32.682Z,7.6
2024-03-02T07:46:32.645Z,8.4
2024-03-02T07:47:32.655Z,8.7
2024-03-02T07:48:32.676Z,7.6
2024-03-02T07:49:32.661Z,7.5
2024-03-02T07:50:32.637Z,8.4
2024-03-02T07:51:32.682Z,8.7
2024-03-02T07:52:32.652Z,6.6
2024-03-02T07:53:32.660Z,6.7
2024-03-02T07:54:32.696Z,7
2024-03-02T07:55:32.654Z,7.1
2024-03-02T07:56:32.656Z,7.1
2024-03-02T07:57:32.700Z,7
2024-03-02T07:58:32.671Z,6.6
2024-03-02T07:59:32.657Z,5.3
2024-03-02T08:00:32.669Z,5.1
2024-03-02T08:01:32.696Z,5.3
2024-03-02T08:02:32.654Z,5.4
2024-03-02T08:03:32.669Z,6.2
2024-03-02T08:04:32.654Z,6
2024-03-02T08:05:32.676Z,6.3
2024-03-02T08:06:32.662Z,7
2024-03-02T08:07:32.675Z,6.6
2024-03-02T08:08:32.682Z,6.7
2024-03-02T08:09:32.703Z,7.2
2024-03-02T08:10:32.618Z,6.9
2024-03-02T08:11:32.671Z,6.3
2024-03-02T08:12:32.664Z,6.8
2024-03-02T08:13:32.650Z,6.1
2024-03-02T08:14:32.656Z,5.7
2024-03-02T08:15:32.732Z,5.9
2024-03-02T08:16:32.663Z,6.2
2024-03-02T08:17:34.294Z,6
2024-03-02T08:18:32.648Z,5.9
2024-03-02T08:19:32.656Z,6.9
2024-03-02T08:20:32.666Z,6.4
2024-03-02T08:21:32.742Z,7.4
2024-03-02T08:22:32.627Z,7
2024-03-02T08:23:32.634Z,6
2024-03-02T08:24:32.665Z,6.3
2024-03-02T08:25:32.688Z,5.9
2024-03-02T08:26:32.656Z,6.1
2024-03-02T08:27:32.701Z,6.5
2024-03-02T08:28:32.609Z,6.6
2024-03-02T08:29:32.648Z,8.2
2024-03-02T08:30:32.619Z,7.3
2024-03-02T08:31:32.678Z,7.2
2024-03-02T08:32:32.651Z,6.5
2024-03-02T08:33:33.964Z,7.4
2024-03-02T08:34:32.634Z,7.6
2024-03-02T08:35:32.617Z,6.9
2024-03-02T08:36:32.698Z,6.9
2024-03-02T08:37:32.654Z,8.7
2024-03-02T08:38:32.647Z,7.8
2024-03-02T08:39:32.738Z,7.2
2024-03-02T08:40:32.639Z,6.8
2024-03-02T08:41:32.647Z,7.9
2024-03-02T08:42:32.687Z,9
2024-03-02T08:43:32.641Z,7.4
2024-03-02T08:44:32.654Z,7.9
2024-03-02T08:45:32.845Z,6.8
2024-03-02T08:46:32.662Z,6.5
2024-03-02T08:47:32.598Z,7.4
2024-03-02T08:48:32.666Z,6.5
2024-03-02T08:49:32.665Z,7.3
2024-03-02T08:50:32.601Z,7.3
2024-03-02T08:51:32.679Z,7.4
2024-03-02T08:52:32.621Z,8.5
2024-03-02T08:53:32.629Z,10
2024-03-02T08:54:32.637Z,8.1
2024-03-02T08:55:32.659Z,7.7
2024-03-02T08:56:32.677Z,7.9
2024-03-02T08:57:32.737Z,8.5
2024-03-02T08:58:32.668Z,8.2
2024-03-02T08:59:32.640Z,7.3
2024-03-02T09:00:32.771Z,6.8
2024-03-02T09:01:32.762Z,6.9
2024-03-02T09:02:32.666Z,6.8
2024-03-02T09:03:32.662Z,7
2024-03-02T09:05:32.670Z,6.9
2024-03-02T09:06:32.674Z,7.3
2024-03-02T09:07:32.639Z,7.4
2024-03-02T09:08:32.638Z,7.5
2024-03-02T09:09:32.652Z,8.2
2024-03-02T09:10:32.668Z,8
2024-03-02T09:11:32.683Z,8.3
2024-03-02T09:12:32.697Z,8
2024-03-02T09:13:32.636Z,8.7
2024-03-02T09:14:32.649Z,9.8
2024-03-02T09:15:35.860Z,8.5
2024-03-02T09:16:32.664Z,8.7
2024-03-02T09:17:32.638Z,9
2024-03-02T09:18:32.711Z,9.2
2024-03-02T09:19:32.666Z,9.4
2024-03-02T09:20:32.639Z,10.2
2024-03-02T09:21:32.696Z,9.3
2024-03-02T09:22:32.661Z,9.6
2024-03-02T09:23:32.657Z,9.9
2024-03-02T09:24:32.643Z,10.7
2024-03-02T09:25:32.646Z,9.8
2024-03-02T09:26:32.646Z,10.6
2024-03-02T09:27:32.682Z,11.1
2024-03-02T09:28:32.655Z,11.6
2024-03-02T09:29:32.656Z,11.6
2024-03-02T09:30:32.659Z,11.9
2024-03-02T17:04:32.653Z,8.8
2024-03-02T17:06:32.657Z,8.8
2024-03-02T17:07:32.666Z,9
2024-03-02T17:08:32.636Z,9.5
2024-03-02T17:09:32.648Z,8.5
2024-03-02T17:10:32.669Z,8.5
2024-03-02T17:11:32.683Z,8.5
2024-03-02T17:12:32.696Z,8.6
2024-03-02T17:13:32.651Z,8.4
2024-03-02T17:14:32.667Z,8.9
2024-03-02T17:15:32.660Z,8.9
2024-03-02T17:16:32.657Z,8.9
2024-03-02T17:17:32.694Z,9.4
2024-03-02T17:18:32.645Z,8.6
2024-03-02T17:19:32.654Z,8.9
2024-03-02T17:20:32.650Z,9.6
2024-03-02T17:21:32.660Z,9
2024-03-02T17:22:32.663Z,9.3
2024-03-02T17:23:32.659Z,8.6
2024-03-02T17:24:32.684Z,8.7
2024-03-02T17:25:32.640Z,8.6
2024-03-02T17:26:32.666Z,8.7
2024-03-02T17:27:32.731Z,8.8
2024-03-02T17:28:34.062Z,8.4
2024-03-02T17:29:32.658Z,9
2024-03-02T17:30:32.619Z,9.2
2024-03-02T17:31:32.655Z,8.7
2024-03-02T17:32:32.673Z,8.8
2024-03-02T17:33:32.708Z,8.5
2024-03-02T17:34:32.668Z,9.1
2024-03-02T17:35:32.652Z,8.8
2024-03-02T17:36:32.689Z,9.3
2024-03-02T17:37:32.660Z,8.2
2024-03-02T17:38:32.654Z,8.4
2024-03-02T17:39:32.706Z,9.3
2024-03-02T17:40:32.665Z,9
2024-03-02T17:41:32.653Z,8.3
2024-03-02T17:42:32.700Z,9.6
2024-03-02T17:43:32.664Z,8.7
2024-03-02T17:44:32.637Z,8.5
2024-03-02T17:45:32.682Z,8.7
2024-03-02T17:46:32.658Z,9.1
2024-03-02T17:47:32.661Z,9.6
2024-03-02T17:48:32.660Z,8.3
2024-03-02T17:49:32.673Z,8.9
2024-03-02T17:50:32.650Z,8.8
2024-03-02T17:51:32.699Z,9.1
2024-03-02T17:52:32.629Z,8.8
2024-03-02T17:53:32.659Z,9.2
2024-03-02T17:54:32.683Z,8.6
2024-03-02T17:55:32.635Z,8.7
2024-03-02T17:56:32.664Z,9.1
2024-03-02T17:57:32.650Z,9.1
2024-03-02T17:58:32.659Z,8.7
2024-03-02T17:59:32.619Z,9.1
2024-03-02T18:00:32.667Z,8.6
2024-03-02T18:01:32.664Z,9.8
2024-03-02T18:02:32.673Z,8.9
2024-03-02T18:03:32.677Z,8.4
2024-03-02T18:04:32.634Z,8.5
2024-03-02T18:05:32.663Z,8
2024-03-02T18:06:32.677Z,8.4
2024-03-02T18:07:32.666Z,8.4
2024-03-02T18:08:33.753Z,8.5
2024-03-02T18:09:32.652Z,8.7
2024-03-02T18:10:32.647Z,7.7
2024-03-02T18:11:32.727Z,8.4
2024-03-02T18:12:32.642Z,8.3
2024-03-02T18:13:32.634Z,8.5
2024-03-02T18:14:32.636Z,8.7
2024-03-02T18:15:32.760Z,8.4
2024-03-02T18:16:32.686Z,8.6
2024-03-02T18:17:32.650Z,8.1
2024-03-02T18:18:32.819Z,9.2
2024-03-02T18:19:32.704Z,8.2
2024-03-02T18:20:32.688Z,8.6
2024-03-02T18:21:32.678Z,9.1
2024-03-02T18:22:32.663Z,9.2
2024-03-02T18:23:32.659Z,9.2
2024-03-02T18:24:35.622Z,8.6
2024-03-02T18:25:32.681Z,9.7
2024-03-02T18:26:32.642Z,9.2
2024-03-02T18:27:35.159Z,8.7
2024-03-02T18:28:32.669Z,8.8
2024-03-02T18:29:32.662Z,9.2
2024-03-02T18:30:32.696Z,8.6
2024-03-02T18:31:32.656Z,9
2024-03-02T18:32:32.663Z,8.5
2024-03-02T18:33:32.730Z,9.3
2024-03-02T18:34:32.685Z,9.8
2024-03-02T18:35:32.628Z,8.5
2024-03-02T18:36:32.656Z,10.4
2024-03-02T18:37:32.640Z,8.7
2024-03-02T18:38:32.624Z,10
2024-03-02T18:39:32.757Z,9.7
2024-03-02T18:40:32.650Z,9.4
2024-03-02T18:41:32.647Z,10.8
2024-03-02T18:42:32.673Z,9.5
2024-03-02T18:43:32.642Z,9.2
2024-03-02T18:44:32.629Z,9.5
2024-03-02T18:45:32.726Z,9.4
2024-03-02T18:46:32.664Z,9.8
2024-03-02T18:47:32.684Z,9.7
2024-03-02T18:48:32.692Z,10.8
2024-03-02T18:49:32.620Z,9.7
2024-03-02T18:50:32.618Z,9.5
2024-03-02T18:51:32.704Z,9.3
2024-03-02T18:52:32.663Z,9.6
2024-03-02T18:53:32.636Z,9.6
2024-03-02T18:54:32.649Z,9.4
2024-03-02T18:55:32.620Z,9
2024-03-02T18:56:32.724Z,9.3
2024-03-02T18:57:32.711Z,10.3
2024-03-02T18:58:32.658Z,10
2024-03-02T18:59:32.665Z,10.6
2024-03-02T19:00:32.778Z,11.5
2024-03-02T19:01:32.703Z,10.4
2024-03-02T19:02:32.661Z,11.4
2024-03-02T19:03:32.670Z,12
2024-03-02T19:04:32.716Z,10.6
2024-03-02T19:05:32.645Z,10.6
2024-03-02T19:06:32.642Z,11.3
2024-03-02T19:07:32.649Z,10.9
2024-03-02T19:08:32.648Z,11.4
2024-03-02T19:09:32.688Z,11
2024-03-02T19:10:32.673Z,10.8
2024-03-02T19:11:32.654Z,11.2
2024-03-02T19:12:32.661Z,10.7
2024-03-02T19:13:32.628Z,10.8
2024-03-02T19:14:32.658Z,10.5
2024-03-02T19:15:32.664Z,10.4
2024-03-02T19:16:32.643Z,10.2
2024-03-02T19:17:32.678Z,10.8
2024-03-02T19:18:32.629Z,10
2024-03-02T19:19:32.663Z,10.3
2024-03-02T19:20:32.682Z,9.4
2024-03-02T19:21:32.663Z,10.1
2024-03-02T19:22:32.660Z,9.1
2024-03-02T19:23:39.735Z,8.7
2024-03-02T19:24:32.640Z,10.4
2024-03-02T19:25:32.633Z,9.1
2024-03-02T19:26:32.653Z,8.7
2024-03-02T19:27:32.673Z,9
2024-03-02T19:28:32.654Z,8.5
2024-03-02T19:29:32.646Z,8.7
2024-03-02T19:30:32.705Z,8.9
2024-03-02T19:31:32.640Z,8.4
2024-03-02T19:32:32.677Z,8.7
2024-03-02T19:33:32.721Z,8.9
2024-03-02T19:34:32.600Z,8.2
2024-03-02T19:35:32.630Z,8.3
2024-03-02T19:36:32.669Z,8.3
2024-03-02T19:37:32.663Z,10.1
2024-03-02T19:38:32.637Z,9.4
2024-03-02T19:39:32.665Z,8.5
2024-03-02T19:40:32.662Z,9.7
2024-03-02T19:41:32.633Z,9.3
2024-03-02T19:42:32.644Z,9.2
2024-03-02T19:43:32.650Z,9.9
2024-03-02T19:44:32.694Z,11.2
2024-03-02T19:45:32.720Z,10.7
2024-03-02T19:46:32.654Z,11.2
2024-03-02T19:47:32.640Z,9.7
2024-03-02T19:48:32.627Z,9.9
2024-03-02T19:49:32.732Z,10.3
2024-03-02T19:50:32.636Z,10.5
2024-03-02T19:51:32.662Z,10.2
2024-03-02T19:52:32.646Z,9.9
2024-03-02T19:53:32.636Z,10.8
2024-03-02T19:54:32.637Z,9.6
2024-03-02T19:55:32.640Z,8.7
2024-03-02T19:56:32.653Z,8
2024-03-02T19:57:32.683Z,7.6
2024-03-02T19:58:32.654Z,7.7
2024-03-02T19:59:32.661Z,7.1
2024-03-02T20:00:32.669Z,7.6
2024-03-02T20:01:32.701Z,8.2
2024-03-02T20:02:32.609Z,7.9
2024-03-02T20:03:32.691Z,9
2024-03-02T20:04:32.649Z,7.9
2024-03-02T20:05:32.620Z,8.4
2024-03-02T20:06:32.664Z,8.4
2024-03-02T20:07:32.650Z,7.5
2024-03-02T20:08:32.649Z,8.3
2024-03-02T20:09:32.631Z,7.3
2024-03-02T20:10:32.627Z,7.5
2024-03-02T20:11:32.629Z,8.3
2024-03-02T20:12:32.658Z,8
2024-03-02T20:13:32.614Z,7.7
2024-03-02T20:14:32.650Z,7.6
2024-03-02T20:15:32.677Z,7.5
2024-03-02T20:16:32.604Z,7.4
2024-03-02T20:17:32.650Z,8.7
2024-03-02T20:18:32.642Z,7.6
2024-03-02T20:19:32.664Z,8
2024-03-02T20:20:32.665Z,9.1
2024-03-02T20:21:32.644Z,8.1
2024-03-02T20:22:32.665Z,7.3
2024-03-02T20:23:32.669Z,8.3
2024-03-02T20:24:32.656Z,8.1
2024-03-02T20:25:32.668Z,8.4
2024-03-02T20:26:32.676Z,8.5
2024-03-02T20:27:32.659Z,8.2
2024-03-02T20:28:32.664Z,7.4
2024-03-02T20:29:32.674Z,8.1
2024-03-02T20:30:32.701Z,7.3
2024-03-02T20:31:32.665Z,7.8
2024-03-02T20:32:32.701Z,7.6
2024-03-02T20:33:32.687Z,7.6
2024-03-02T20:34:32.646Z,7.2
2024-03-02T20:35:32.664Z,7
2024-03-02T20:36:32.635Z,8.5
2024-03-02T20:37:32.661Z,7.3
2024-03-02T20:38:32.645Z,7.1
2024-03-02T20:39:32.684Z,7.3
2024-03-02T20:40:32.666Z,7.8
2024-03-02T20:41:32.662Z,6.7
2024-03-02T20:42:32.693Z,6.8
2024-03-02T20:43:32.644Z,6.8
2024-03-02T20:44:32.645Z,5.9
2024-03-02T20:45:32.704Z,8.1
2024-03-02T20:46:32.643Z,6.6
2024-03-02T20:47:32.667Z,7.6
2024-03-02T20:48:32.664Z,7.3
2024-03-02T20:49:32.818Z,7.4
2024-03-02T20:50:32.656Z,8.7
2024-03-02T20:51:32.818Z,8.1
2024-03-02T20:52:32.665Z,7.3
2024-03-02T20:53:32.642Z,7.6
2024-03-02T20:54:32.636Z,7.6
2024-03-02T20:55:32.637Z,7
2024-03-02T20:56:32.684Z,6.1
2024-03-02T20:57:32.649Z,7
2024-03-02T20:58:32.640Z,8.6
2024-03-02T20:59:32.625Z,6.6
2024-03-02T21:00:32.696Z,6.4
2024-03-02T21:01:32.633Z,6.6
2024-03-02T21:02:32.684Z,6.6
2024-03-02T21:03:32.682Z,6.9
2024-03-02T21:04:32.730Z,5.6
2024-03-02T21:05:32.622Z,7.5
2024-03-02T21:06:32.710Z,6.3
2024-03-02T21:07:32.654Z,8.1
2024-03-02T21:08:32.643Z,6.8
2024-03-02T21:09:32.681Z,6.6
2024-03-02T21:10:32.643Z,7.1
2024-03-02T21:11:32.679Z,6.1
2024-03-02T21:12:32.633Z,7.3
2024-03-02T21:13:32.665Z,6.8
2024-03-02T21:14:32.628Z,7.1
2024-03-02T21:15:32.665Z,6.8
2024-03-02T21:16:32.645Z,6.5
2024-03-02T21:17:32.600Z,6.2
2024-03-02T21:18:32.675Z,7.9
2024-03-02T21:19:32.675Z,6.6
2024-03-02T21:20:32.637Z,6.2
2024-03-02T21:21:32.719Z,5.9
2024-03-02T21:22:32.654Z,7.1
2024-03-02T21:23:32.579Z,6
2024-03-02T21:24:32.731Z,6.2
2024-03-02T21:25:32.632Z,7
2024-03-02T21:26:32.653Z,6.8
2024-03-02T21:27:32.670Z,7.5